Time;durP1;ratioP1;P1;durP2;ratioP2;P2;SDS_P1;SDS_P2;PMS_P1;PMS_P2;Temp;Humidity;BMP_temperature;BMP_pressure;BME280_temperature;BME280_humidity;BME280_pressure;Samples;Min_cycle;Max_cycle;Signal;HPM_P1;HPM_P2
2022/01/11 00:00:31;;;;;;;;;;;;;;;-144.99;100.00;52656.00;4934394;29;19930;-60
2022/01/11 00:02:58;;;;;;;;;;;;;;;-144.99;100.00;52702.88;4927492;29;20400;-62
2022/01/11 00:05:29;;;;;;;;;;;;;;;-144.99;100.00;52721.22;4926952;29;19938;-63
2022/01/11 00:07:56;;;;;;;;;;;;;;;-144.99;100.00;52713.09;4928755;29;19938;-62
2022/01/11 00:10:27;;;;;;;;;;;;;;;-144.99;100.00;52702.88;4596240;28;9999884;-62
2022/01/11 00:12:55;;;;;;;;;;;;;;;-144.99;100.00;52668.22;4945519;28;19926;-62
2022/01/11 00:15:22;;;;;;;;;;;;;;;-144.99;100.00;52721.22;4927820;28;19927;-63
2022/01/11 00:17:49;;;;;;;;;;;;;;;-144.99;100.00;52684.53;4927085;29;19931;-61
2022/01/11 00:20:17;;;;;;;;;;;;;;;-144.99;100.00;52684.53;4935466;29;19941;-62
2022/01/11 00:24:27;;;;;;;;;;;;;;;-144.99;100.00;52686.59;4929184;28;19970;-61
2022/01/11 00:25:36;;;;;;;;;;;;;;;-144.99;100.00;52700.84;4935446;28;19966;-61
2022/01/11 00:28:05;;;;;;;;;;;;;;;-144.99;100.00;52686.59;4938196;29;20024;-59
2022/01/11 00:30:34;;;;;;;;;;;;;;;-144.99;100.00;52680.47;4930368;29;20329;-61
2022/01/11 00:33:03;;;;;;;;;;;;;;;-144.99;100.00;52660.09;4930446;29;19927;-61
2022/01/11 00:35:39;;;;;;;;;;;;;;;-144.99;100.00;52717.16;4930796;29;20153;-61
2022/01/11 00:38:06;;;;;;;;;;;;;;;-144.99;100.00;52668.22;4930310;29;19926;-62
2022/01/11 00:40:32;;;;;;;;;;;;;;;-144.99;100.00;52660.09;4929701;29;19927;-62
2022/01/11 00:42:59;;;;;;;;;;;;;;;-144.99;100.00;52709.00;4929759;29;19927;-63
2022/01/11 00:45:27;;;;;;;;;;;;;;;-144.99;100.00;52709.00;4937586;29;19957;-63
2022/01/11 00:47:54;;;;;;;;;;;;;;;-144.99;100.00;52668.22;4937831;29;19927;-62
2022/01/11 00:50:20;;;;;;;;;;;;;;;-144.99;100.00;52702.88;4929560;29;19938;-60
2022/01/11 00:52:47;;;;;;;;;;;;;;;-144.99;100.00;52643.78;4929855;29;20356;-62
2022/01/11 00:55:21;;;;;;;;;;;;;;;-144.99;100.00;52704.94;4926253;29;19927;-62
2022/01/11 00:57:48;;;;;;;;;;;;;;;-144.99;100.00;52692.69;4933086;29;20321;-61
2022/01/11 01:00:14;;;;;;;;;;;;;;;-144.99;100.00;52696.78;4937597;28;19965;-64
2022/01/11 01:02:43;;;;;;;;;;;;;;;-144.99;100.00;52692.69;4930446;29;20037;-63
2022/01/11 01:05:09;;;;;;;;;;;;;;;-144.99;100.00;52684.53;4929285;29;19954;-63
2022/01/11 01:07:36;;;;;;;;;;;;;;;-144.99;100.00;52664.16;4928871;29;19950;-60
2022/01/11 01:10:06;;;;;;;;;;;;;;;-144.99;100.00;52684.53;4929126;29;19931;-60
2022/01/11 01:12:33;;;;;;;;;;;;;;;-144.99;100.00;52676.38;4929745;29;20323;-62
2022/01/11 01:15:00;;;;;;;;;;;;;;;-144.99;100.00;52668.22;4929519;29;19950;-61
2022/01/11 01:17:27;;;;;;;;;;;;;;;-144.99;100.00;52690.66;4929736;29;19938;-60
2022/01/11 01:19:55;;;;;;;;;;;;;;;-144.99;100.00;52684.53;4933347;28;19926;-61
2022/01/11 01:22:21;;;;;;;;;;;;;;;-144.99;100.00;52692.69;4935493;28;20012;-60
2022/01/11 01:24:47;;;;;;;;;;;;;;;-144.99;100.00;52700.84;4936756;29;19987;-61
2022/01/11 01:27:14;;;;;;;;;;;;;;;-144.99;100.00;52709.00;4943190;28;19931;-60
2022/01/11 01:29:41;;;;;;;;;;;;;;;-144.99;100.00;52684.53;4929761;29;19931;-60
2022/01/11 01:32:07;;;;;;;;;;;;;;;-144.99;100.00;52725.31;4929440;28;19933;-59
2022/01/11 01:34:34;;;;;;;;;;;;;;;-144.99;100.00;52704.94;4929276;29;19927;-61
2022/01/11 01:37:02;;;;;;;;;;;;;;;-144.99;100.00;52692.69;4931383;29;19945;-60
2022/01/11 01:39:28;;;;;;;;;;;;;;;-144.99;100.00;52709.00;4929451;29;19930;-61
2022/01/11 01:41:55;;;;;;;;;;;;;;;-144.99;100.00;52704.94;4928897;29;19927;-61
2022/01/11 01:44:21;;;;;;;;;;;;;;;-144.99;100.00;52672.31;4934293;29;19926;-60
2022/01/11 01:46:48;;;;;;;;;;;;;;;-144.99;100.00;52680.47;4938844;28;20013;-59
2022/01/11 01:49:17;;;;;;;;;;;;;;;-144.99;100.00;52688.63;4928595;29;19930;-61
2022/01/11 01:51:44;;;;;;;;;;;;;;;-144.99;100.00;52700.84;4928988;28;19934;-60
2022/01/11 01:54:12;;;;;;;;;;;;;;;-144.99;100.00;52680.47;4928925;29;20291;-61
2022/01/11 01:56:38;;;;;;;;;;;;;;;-144.99;100.00;52684.53;4928377;28;20005;-60
2022/01/11 01:59:05;;;;;;;;;;;;;;;-144.99;100.00;52713.09;4933698;29;19926;-61
2022/01/11 02:01:35;;;;;;;;;;;;;;;-144.99;100.00;52692.69;4932900;28;20043;-61
2022/01/11 02:04:01;;;;;;;;;;;;;;;-144.99;100.00;52713.09;4928518;28;19926;-60
2022/01/11 02:06:27;;;;;;;;;;;;;;;-144.99;100.00;52692.69;4929142;29;19930;-60
2022/01/11 02:08:54;;;;;;;;;;;;;;;-144.99;100.00;52696.78;4928374;29;19931;-59
2022/01/11 02:11:22;;;;;;;;;;;;;;;-144.99;100.00;52692.69;4928950;29;19934;-60
2022/01/11 02:13:49;;;;;;;;;;;;;;;-144.99;100.00;52696.78;4928360;29;19986;-61
2022/01/11 02:16:16;;;;;;;;;;;;;;;-144.99;100.00;52664.16;4928837;28;19938;-60
2022/01/11 02:18:45;;;;;;;;;;;;;;;-144.99;100.00;52676.38;4928187;29;19965;-61
2022/01/11 02:21:13;;;;;;;;;;;;;;;-144.99;100.00;52704.94;4938127;29;20333;-61
2022/01/11 02:23:39;;;;;;;;;;;;;;;-144.99;100.00;52676.38;4926204;29;19927;-61
2022/01/11 02:26:06;;;;;;;;;;;;;;;-144.99;100.00;52684.53;4932563;28;19941;-62
2022/01/11 02:28:33;;;;;;;;;;;;;;;-144.99;100.00;52692.69;4932613;28;20475;-61
2022/01/11 02:31:00;;;;;;;;;;;;;;;-144.99;100.00;52700.84;4929055;29;19949;-61
2022/01/11 02:33:33;;;;;;;;;;;;;;;-144.99;100.00;52684.53;4928605;29;20076;-60
2022/01/11 02:35:59;;;;;;;;;;;;;;;-144.99;100.00;52700.84;4930699;29;19927;-60
2022/01/11 02:38:27;;;;;;;;;;;;;;;-144.99;100.00;52678.44;4928786;29;19934;-61
2022/01/11 02:40:53;;;;;;;;;;;;;;;-144.99;100.00;52721.22;4928289;29;19939;-62
2022/01/11 02:43:20;;;;;;;;;;;;;;;-144.99;100.00;52668.22;4928221;29;19939;-58
2022/01/11 02:45:46;;;;;;;;;;;;;;;-144.99;100.00;52651.94;4936545;29;19943;-58
2022/01/11 02:48:12;;;;;;;;;;;;;;;-144.99;100.00;52660.09;4935346;28;19935;-60
2022/01/11 02:50:39;;;;;;;;;;;;;;;-144.99;100.00;52664.16;4973303;22;20348;-59
2022/01/11 02:53:05;;;;;;;;;;;;;;;-144.99;100.00;52729.38;5046115;28;19925;-59
2022/01/11 02:55:37;;;;;;;;;;;;;;;-144.99;100.00;52651.94;5030187;28;19929;-59
2022/01/11 02:58:03;;;;;;;;;;;;;;;-144.99;100.00;52688.63;5029850;28;19987;-59
2022/01/11 03:00:30;;;;;;;;;;;;;;;-144.99;100.00;52668.22;5029820;28;19932;-59
2022/01/11 03:02:56;;;;;;;;;;;;;;;-144.99;100.00;52700.84;5029542;28;19947;-59
2022/01/11 03:05:23;;;;;;;;;;;;;;;-144.99;100.00;52688.63;5029323;28;20285;-60
2022/01/11 03:07:49;;;;;;;;;;;;;;;-144.99;100.00;52696.78;5029577;28;19936;-59
2022/01/11 03:10:25;;;;;;;;;;;;;;;-144.99;100.00;52688.63;5029522;28;20008;-60
2022/01/11 03:12:52;;;;;;;;;;;;;;;-144.99;100.00;52709.00;5029804;28;20299;-60
2022/01/11 03:15:19;;;;;;;;;;;;;;;-144.99;100.00;52668.22;5029747;28;19925;-60
2022/01/11 03:17:46;;;;;;;;;;;;;;;-144.99;100.00;52709.00;5029807;28;19963;-60
2022/01/11 03:20:12;;;;;;;;;;;;;;;-144.99;100.00;52696.78;5029508;28;20671;-60
2022/01/11 03:22:41;;;;;;;;;;;;;;;-144.99;100.00;52680.47;5029613;28;19925;-59
2022/01/11 03:25:08;;;;;;;;;;;;;;;-144.99;100.00;52668.22;5029206;28;19925;-60
2022/01/11 03:27:35;;;;;;;;;;;;;;;-144.99;100.00;52635.63;5029691;28;20028;-59
2022/01/11 03:30:04;;;;;;;;;;;;;;;-144.99;100.00;52684.53;5029751;28;20023;-60
2022/01/11 03:32:30;;;;;;;;;;;;;;;-144.99;100.00;52664.16;5033566;28;19936;-61
2022/01/11 03:34:57;;;;;;;;;;;;;;;-144.99;100.00;52709.00;5032737;28;20404;-61
2022/01/11 03:37:23;;;;;;;;;;;;;;;-144.99;100.00;52676.38;5033183;28;20366;-62
2022/01/11 03:39:49;;;;;;;;;;;;;;;-144.99;100.00;52688.63;5032897;28;20250;-62
2022/01/11 03:42:16;;;;;;;;;;;;;;;-144.99;100.00;52704.94;5033004;28;20313;-61
2022/01/11 03:44:42;;;;;;;;;;;;;;;-144.99;100.00;52653.97;5033165;28;19925;-60
2022/01/11 03:47:10;;;;;;;;;;;;;;;-144.99;100.00;52688.63;5030545;28;20062;-61
2022/01/11 03:49:37;;;;;;;;;;;;;;;-144.99;100.00;52660.09;5032467;28;19925;-59
2022/01/11 03:52:04;;;;;;;;;;;;;;;-144.99;100.00;52680.47;5032862;28;19925;-59
2022/01/11 03:54:43;;;;;;;;;;;;;;;-144.99;100.00;52674.34;5032499;28;19930;-64
2022/01/11 03:57:10;;;;;;;;;;;;;;;-144.99;100.00;52709.00;5032305;28;19932;-64
2022/01/11 03:59:36;;;;;;;;;;;;;;;-144.99;100.00;52680.47;5032705;28;20278;-64
2022/01/11 04:02:03;;;;;;;;;;;;;;;-144.99;100.00;52692.69;5032981;28;19925;-64
2022/01/11 04:04:30;;;;;;;;;;;;;;;-144.99;100.00;52680.47;5032100;28;19948;-59
2022/01/11 04:06:57;;;;;;;;;;;;;;;-144.99;100.00;52684.53;5032491;28;19925;-60
2022/01/11 04:09:24;;;;;;;;;;;;;;;-144.99;100.00;52696.78;5031781;28;20400;-58
2022/01/11 04:11:50;;;;;;;;;;;;;;;-144.99;100.00;52696.78;5032390;28;20408;-58
2022/01/11 04:14:17;;;;;;;;;;;;;;;-144.99;100.00;52684.53;5032019;28;19925;-58
2022/01/11 04:16:43;;;;;;;;;;;;;;;-144.99;100.00;52692.69;5032546;28;19925;-59
2022/01/11 04:19:09;;;;;;;;;;;;;;;-144.99;100.00;52704.94;5032097;28;19925;-57
2022/01/11 04:21:37;;;;;;;;;;;;;;;-144.99;100.00;52684.53;5032831;28;19925;-59
2022/01/11 04:24:04;;;;;;;;;;;;;;;-144.99;100.00;52692.69;5029987;28;20394;-59
2022/01/11 04:26:30;;;;;;;;;;;;;;;-144.99;100.00;52688.63;5032456;28;19944;-58
2022/01/11 04:28:56;;;;;;;;;;;;;;;-144.99;100.00;52684.53;5032393;28;19939;-58
2022/01/11 04:31:23;;;;;;;;;;;;;;;-144.99;100.00;52690.66;5032613;28;19925;-57
2022/01/11 04:33:49;;;;;;;;;;;;;;;-144.99;100.00;52656.00;5032164;28;19967;-58
2022/01/11 04:36:16;;;;;;;;;;;;;;;-144.99;100.00;52692.69;5032471;28;19928;-60
2022/01/11 04:38:44;;;;;;;;;;;;;;;-144.99;100.00;52696.78;5031750;28;19935;-59
2022/01/11 04:41:10;;;;;;;;;;;;;;;-144.99;100.00;52723.28;5032586;28;19933;-58
2022/01/11 04:43:37;;;;;;;;;;;;;;;-144.99;100.00;52660.09;5032196;28;19959;-58
2022/01/11 04:46:03;;;;;;;;;;;;;;;-144.99;100.00;52713.09;5031820;28;19933;-59
2022/01/11 04:48:32;;;;;;;;;;;;;;;-144.99;100.00;52709.00;5031965;28;20393;-59
2022/01/11 04:50:59;;;;;;;;;;;;;;;-144.99;100.00;52700.84;5031606;28;19965;-59
2022/01/11 04:53:25;;;;;;;;;;;;;;;-144.99;100.00;52709.00;5031393;28;19933;-59
2022/01/11 04:55:53;;;;;;;;;;;;;;;-144.99;100.00;52692.69;5024536;28;19933;-59
2022/01/11 04:58:19;;;;;;;;;;;;;;;-144.99;100.00;52678.44;5031892;28;19925;-60
2022/01/11 05:00:46;;;;;;;;;;;;;;;-144.99;100.00;52668.22;5031812;28;19935;-60
2022/01/11 05:03:12;;;;;;;;;;;;;;;-144.99;100.00;52700.84;5031573;28;19929;-60
2022/01/11 05:05:39;;;;;;;;;;;;;;;-144.99;100.00;52709.00;5030866;28;19929;-60
2022/01/11 05:08:05;;;;;;;;;;;;;;;-144.99;100.00;52692.69;5032064;28;19929;-60
2022/01/11 05:10:32;;;;;;;;;;;;;;;-144.99;100.00;52660.09;5031134;28;19968;-60
2022/01/11 05:12:59;;;;;;;;;;;;;;;-144.99;100.00;52725.31;5031860;28;19993;-61
2022/01/11 05:15:28;;;;;;;;;;;;;;;-144.99;100.00;52692.69;5031510;28;19932;-64
2022/01/11 05:17:54;;;;;;;;;;;;;;;-144.99;100.00;52696.78;5031359;28;19925;-66
2022/01/11 05:20:21;;;;;;;;;;;;;;;-144.99;100.00;52676.38;5031118;28;19932;-62
2022/01/11 05:22:47;;;;;;;;;;;;;;;-144.99;100.00;52686.59;5029558;28;19925;-64
2022/01/11 05:25:15;;;;;;;;;;;;;;;-144.99;100.00;52704.94;5030781;28;19925;-64
2022/01/11 05:27:42;;;;;;;;;;;;;;;-144.99;100.00;52692.69;5031379;28;19925;-63
2022/01/11 05:30:11;;;;;;;;;;;;;;;-144.99;100.00;52668.22;5031153;28;19925;-62
2022/01/11 05:32:38;;;;;;;;;;;;;;;-144.99;100.00;52721.22;5030813;28;19932;-62
2022/01/11 05:35:05;;;;;;;;;;;;;;;-144.99;100.00;52696.78;5030820;28;20016;-64
2022/01/11 05:37:31;;;;;;;;;;;;;;;-144.99;100.00;52696.78;5031554;28;19929;-63
2022/01/11 05:39:58;;;;;;;;;;;;;;;-144.99;100.00;52704.94;5030997;28;19925;-64
2022/01/11 05:42:24;;;;;;;;;;;;;;;-144.99;100.00;52706.97;5031296;28;19976;-65
2022/01/11 05:44:51;;;;;;;;;;;;;;;-144.99;100.00;52676.38;5031091;28;19925;-64
2022/01/11 05:47:18;;;;;;;;;;;;;;;-144.99;100.00;52662.13;5030654;28;19929;-63
2022/01/11 05:49:45;;;;;;;;;;;;;;;-144.99;100.00;52692.69;5030832;28;19932;-65
2022/01/11 05:52:11;;;;;;;;;;;;;;;-144.99;100.00;52682.50;5030701;28;20378;-64
2022/01/11 05:54:38;;;;;;;;;;;;;;;-144.99;100.00;52651.94;5030082;28;20366;-66
2022/01/11 05:57:04;;;;;;;;;;;;;;;-144.99;100.00;52660.09;5029730;28;19925;-65
2022/01/11 05:59:30;;;;;;;;;;;;;;;-144.99;100.00;52713.09;5030988;28;19929;-64
2022/01/11 06:01:57;;;;;;;;;;;;;;;-144.99;100.00;52692.69;5030783;28;20220;-70
2022/01/11 06:04:24;;;;;;;;;;;;;;;-144.99;100.00;52711.03;5030689;28;19925;-68
2022/01/11 06:06:51;;;;;;;;;;;;;;;-144.99;100.00;52700.84;5032149;28;19971;-69
2022/01/11 06:09:17;;;;;;;;;;;;;;;-144.99;100.00;52696.78;5031539;28;19926;-71
2022/01/11 06:11:44;;;;;;;;;;;;;;;-144.99;100.00;52660.09;5030910;28;20412;-71
2022/01/11 06:14:10;;;;;;;;;;;;;;;-144.99;100.00;52692.69;5030876;28;19972;-70
2022/01/11 06:16:37;;;;;;;;;;;;;;;-144.99;100.00;52680.47;5031113;28;19952;-71
2022/01/11 06:19:03;;;;;;;;;;;;;;;-144.99;100.00;52692.69;4334566;28;10000679;-70
2022/01/11 06:21:31;;;;;;;;;;;;;;;-144.99;100.00;52698.81;5028109;28;20412;-69
2022/01/11 06:23:57;;;;;;;;;;;;;;;-144.99;100.00;52680.47;5027200;28;19925;-71
2022/01/11 06:26:24;;;;;;;;;;;;;;;-144.99;100.00;52696.78;5027469;28;19929;-70
2022/01/11 06:28:50;;;;;;;;;;;;;;;-144.99;100.00;52672.31;5027716;28;19929;-72
2022/01/11 06:31:17;;;;;;;;;;;;;;;-144.99;100.00;52704.94;5028059;28;19947;-70
2022/01/11 06:33:43;;;;;;;;;;;;;;;-144.99;100.00;52696.78;5027460;28;19929;-69
2022/01/11 06:36:10;;;;;;;;;;;;;;;-144.99;100.00;52725.31;5028658;28;19933;-70
2022/01/11 06:38:38;;;;;;;;;;;;;;;-144.99;100.00;52692.69;5027132;28;20472;-68
2022/01/11 06:41:05;;;;;;;;;;;;;;;-144.99;100.00;52700.84;5028044;28;20364;-71
2022/01/11 06:43:31;;;;;;;;;;;;;;;-144.99;100.00;52694.72;5027417;28;19929;-69
2022/01/11 06:45:58;;;;;;;;;;;;;;;-144.99;100.00;52700.84;5026005;28;19952;-71
2022/01/11 06:48:24;;;;;;;;;;;;;;;-144.99;100.00;52676.38;5026360;28;19936;-72
2022/01/11 06:50:50;;;;;;;;;;;;;;;-144.99;100.00;52680.47;5026963;28;19925;-71
2022/01/11 06:53:17;;;;;;;;;;;;;;;-144.99;100.00;52717.16;5027936;28;19936;-71
2022/01/11 06:55:44;;;;;;;;;;;;;;;-144.99;100.00;52729.38;5027530;28;19933;-73
2022/01/11 06:58:11;;;;;;;;;;;;;;;-144.99;100.00;52664.16;5026681;28;19925;-74
2022/01/11 07:00:37;;;;;;;;;;;;;;;-144.99;100.00;52731.44;5027161;28;19951;-68
2022/01/11 07:03:04;;;;;;;;;;;;;;;-144.99;100.00;52700.84;5027034;28;19928;-71
2022/01/11 07:05:30;;;;;;;;;;;;;;;-144.99;100.00;52684.53;5027740;28;19947;-69
2022/01/11 07:07:56;;;;;;;;;;;;;;;-144.99;100.00;52741.63;5029765;28;20408;-69
2022/01/11 07:10:23;;;;;;;;;;;;;;;-144.99;100.00;52676.38;5031565;28;19935;-70
2022/01/11 07:12:50;;;;;;;;;;;;;;;-144.99;100.00;52668.22;5030844;28;19929;-70
2022/01/11 07:15:17;;;;;;;;;;;;;;;-144.99;100.00;52676.38;5031788;28;20511;-71
2022/01/11 07:17:43;;;;;;;;;;;;;;;-144.99;100.00;52684.53;5033258;28;20402;-68
2022/01/11 07:20:10;;;;;;;;;;;;;;;-144.99;100.00;52698.81;5022869;28;20287;-70
2022/01/11 07:22:37;;;;;;;;;;;;;;;-144.99;100.00;52696.78;5030477;28;19933;-70
2022/01/11 07:25:04;;;;;;;;;;;;;;;-144.99;100.00;52676.38;5039174;28;19933;-70
2022/01/11 07:27:31;;;;;;;;;;;;;;;-144.99;100.00;52706.97;5031384;28;20356;-70
2022/01/11 07:29:59;;;;;;;;;;;;;;;-144.99;100.00;52647.84;5031291;28;19929;-71
2022/01/11 07:32:25;;;;;;;;;;;;;;;-144.99;100.00;52656.00;5031339;28;19952;-70
2022/01/11 07:34:52;;;;;;;;;;;;;;;-144.99;100.00;52700.84;5031188;28;20371;-73
2022/01/11 07:37:18;;;;;;;;;;;;;;;-144.99;100.00;52700.84;5031404;28;19929;-70
2022/01/11 07:39:45;;;;;;;;;;;;;;;-144.99;100.00;52704.94;5031487;28;20313;-69
2022/01/11 07:42:11;;;;;;;;;;;;;;;-144.99;100.00;52713.09;5031710;28;19929;-69
2022/01/11 07:44:37;;;;;;;;;;;;;;;-144.99;100.00;52682.50;5031912;28;19991;-68
2022/01/11 07:47:05;;;;;;;;;;;;;;;-144.99;100.00;52694.72;5033755;28;19971;-70
2022/01/11 07:49:31;;;;;;;;;;;;;;;-144.99;100.00;52684.53;5039867;28;19931;-72
2022/01/11 07:51:58;;;;;;;;;;;;;;;-144.99;100.00;52709.00;5047773;28;19936;-70
2022/01/11 07:54:24;;;;;;;;;;;;;;;-144.99;100.00;52680.47;5044202;28;19929;-70
2022/01/11 07:56:51;;;;;;;;;;;;;;;-144.99;100.00;52704.94;5036476;28;19988;-72
2022/01/11 07:59:17;;;;;;;;;;;;;;;-144.99;100.00;52684.53;5029141;28;20180;-70
2022/01/11 08:01:43;;;;;;;;;;;;;;;-144.99;100.00;52696.78;5036273;28;20372;-72
2022/01/11 08:04:11;;;;;;;;;;;;;;;-144.99;100.00;52700.84;5036005;28;19928;-70
2022/01/11 08:06:37;;;;;;;;;;;;;;;-144.99;100.00;52713.09;5036707;28;19929;-70
2022/01/11 08:09:04;;;;;;;;;;;;;;;-144.99;100.00;52617.28;5035808;28;19962;-72
2022/01/11 08:11:30;;;;;;;;;;;;;;;-144.99;100.00;52692.69;5036213;28;19929;-70
2022/01/11 08:13:56;;;;;;;;;;;;;;;-144.99;100.00;52709.00;5034942;28;19933;-70
2022/01/11 08:16:23;;;;;;;;;;;;;;;-144.99;100.00;52721.22;5032828;28;20392;-69
2022/01/11 08:18:49;;;;;;;;;;;;;;;-144.99;100.00;52680.47;5028843;28;20386;-69
2022/01/11 08:21:17;;;;;;;;;;;;;;;-144.99;100.00;52704.94;5034442;28;20023;-68
2022/01/11 08:23:43;;;;;;;;;;;;;;;-144.99;100.00;52676.38;5032946;28;19929;-66
2022/01/11 08:26:10;;;;;;;;;;;;;;;-144.99;100.00;52735.50;5032523;28;19925;-68
2022/01/11 08:28:36;;;;;;;;;;;;;;;-144.99;100.00;52709.00;5032623;28;19932;-68
2022/01/11 08:31:03;;;;;;;;;;;;;;;-144.99;100.00;52660.09;5031908;28;19936;-68
2022/01/11 08:33:29;;;;;;;;;;;;;;;-144.99;100.00;52700.84;5032549;28;20457;-68
2022/01/11 08:35:55;;;;;;;;;;;;;;;-144.99;100.00;52649.88;5023151;28;19929;-67
2022/01/11 08:38:23;;;;;;;;;;;;;;;-144.99;100.00;52676.38;5031457;28;19929;-68
2022/01/11 08:40:49;;;;;;;;;;;;;;;-144.99;100.00;52696.78;5032166;28;19925;-68
2022/01/11 08:43:16;;;;;;;;;;;;;;;-144.99;100.00;52680.47;5031680;28;19929;-67
2022/01/11 08:45:42;;;;;;;;;;;;;;;-144.99;100.00;52713.09;5031122;28;19929;-68
2022/01/11 08:48:08;;;;;;;;;;;;;;;-144.99;100.00;52709.00;5031409;28;19929;-68
2022/01/11 08:53:07;;;;;;;;;;;;;;;-144.99;100.00;52696.78;5050611;28;19924;-63
2022/01/11 08:55:35;;;;;;;;;;;;;;;-144.99;100.00;52696.78;5050537;28;19925;-64
2022/01/11 08:58:01;;;;;;;;;;;;;;;-144.99;100.00;52696.78;5047614;28;19943;-63
2022/01/11 09:00:28;;;;;;;;;;;;;;;-144.99;100.00;52682.50;5047347;28;19931;-64
2022/01/11 09:02:54;;;;;;;;;;;;;;;-144.99;100.00;52684.53;5057214;28;19924;-64
2022/01/11 09:05:22;;;;;;;;;;;;;;;-144.99;100.00;52647.84;5050572;28;19929;-64
2022/01/11 09:07:48;;;;;;;;;;;;;;;-144.99;100.00;52660.09;5045129;28;19929;-64
2022/01/11 09:10:15;;;;;;;;;;;;;;;-144.99;100.00;52702.88;5046265;28;19929;-64
2022/01/11 09:12:43;;;;;;;;;;;;;;;-144.99;100.00;52723.28;5046865;28;20014;-63
2022/01/11 09:15:10;;;;;;;;;;;;;;;-144.99;100.00;52682.50;5038119;28;20018;-63
2022/01/11 09:17:37;;;;;;;;;;;;;;;-144.99;100.00;52709.00;5060603;28;20313;-63
2022/01/11 09:20:05;;;;;;;;;;;;;;;-144.99;100.00;52696.78;5036805;28;19929;-64
2022/01/11 09:22:31;;;;;;;;;;;;;;;-144.99;100.00;52713.09;5046335;28;20424;-66
2022/01/11 09:24:57;;;;;;;;;;;;;;;-144.99;100.00;52692.69;5044519;28;19944;-66
2022/01/11 09:27:24;;;;;;;;;;;;;;;-144.99;100.00;52664.16;5046399;28;19973;-66
2022/01/11 09:29:52;;;;;;;;;;;;;;;-144.99;100.00;52700.84;5045797;28;19945;-68
2022/01/11 09:32:18;;;;;;;;;;;;;;;-144.99;100.00;52676.38;5046148;28;20008;-66
2022/01/11 09:34:44;;;;;;;;;;;;;;;-144.99;100.00;52717.16;5045536;28;19929;-67
2022/01/11 09:37:11;;;;;;;;;;;;;;;-144.99;100.00;52688.63;5043476;28;19955;-67
2022/01/11 09:39:39;;;;;;;;;;;;;;;-144.99;100.00;52674.34;5045308;28;19928;-68
2022/01/11 09:42:06;;;;;;;;;;;;;;;-144.99;100.00;52672.31;5041581;28;20414;-68
2022/01/11 09:44:34;;;;;;;;;;;;;;;-144.99;100.00;52647.84;5041282;28;19936;-67
2022/01/11 09:47:02;;;;;;;;;;;;;;;-144.99;100.00;52666.19;5045685;28;20225;-67
2022/01/11 09:49:28;;;;;;;;;;;;;;;-144.99;100.00;52676.38;5045358;28;19928;-67
2022/01/11 09:51:55;;;;;;;;;;;;;;;-144.99;100.00;52680.47;5044537;28;19924;-68
2022/01/11 09:54:21;;;;;;;;;;;;;;;-144.99;100.00;52676.38;5047748;28;19929;-66
2022/01/11 09:56:48;;;;;;;;;;;;;;;-144.99;100.00;52680.47;5037501;28;19928;-68
2022/01/11 09:59:15;;;;;;;;;;;;;;;-144.99;100.00;52664.16;5046363;28;20353;-67
2022/01/11 10:01:41;;;;;;;;;;;;;;;-144.99;100.00;52656.00;5044898;28;20016;-66
2022/01/11 10:04:11;;;;;;;;;;;;;;;-144.99;100.00;52700.84;5045714;28;20382;-68
2022/01/11 10:06:39;;;;;;;;;;;;;;;-144.99;100.00;52733.47;5046744;28;19931;-67
2022/01/11 10:09:10;;;;;;;;;;;;;;;-144.99;100.00;52676.38;5063997;28;19932;-67
2022/01/11 10:11:38;;;;;;;;;;;;;;;-144.99;100.00;52674.34;5048041;28;20035;-67
2022/01/11 10:14:21;;;;;;;;;;;;;;;-144.99;100.00;52684.53;5054606;28;19925;-68
2022/01/11 10:16:47;;;;;;;;;;;;;;;-144.99;100.00;52664.16;5044664;28;20389;-65
2022/01/11 10:19:23;;;;;;;;;;;;;;;-144.99;100.00;52700.84;5045110;28;19925;-67
2022/01/11 10:21:50;;;;;;;;;;;;;;;-144.99;100.00;52668.22;5046415;28;19986;-67
2022/01/11 10:24:24;;;;;;;;;;;;;;;-144.99;100.00;52635.63;5048653;28;20069;-69
2022/01/11 10:26:50;;;;;;;;;;;;;;;-144.99;100.00;52656.00;5045124;28;19929;-68
2022/01/11 10:29:24;;;;;;;;;;;;;;;-144.99;100.00;52664.16;5043905;28;19925;-68
2022/01/11 10:31:50;;;;;;;;;;;;;;;-144.99;100.00;52688.63;5045861;28;19929;-67
2022/01/11 10:34:24;;;;;;;;;;;;;;;-144.99;100.00;52680.47;5056211;28;20369;-68
2022/01/11 10:36:52;;;;;;;;;;;;;;;-144.99;100.00;52674.34;5065591;28;19935;-67
2022/01/11 10:39:25;;;;;;;;;;;;;;;-144.99;100.00;52700.84;5058562;28;20010;-67
2022/01/11 10:41:52;;;;;;;;;;;;;;;-144.99;100.00;52668.22;5032814;28;20403;-68
2022/01/11 10:44:40;;;;;;;;;;;;;;;-144.99;100.00;52664.16;5042892;28;20334;-67
2022/01/11 10:47:06;;;;;;;;;;;;;;;-144.99;100.00;52664.16;5045014;28;19925;-67
2022/01/11 10:49:35;;;;;;;;;;;;;;;-144.99;100.00;52651.94;5046856;28;19940;-68
2022/01/11 10:52:19;;;;;;;;;;;;;;;-144.99;100.00;52668.22;5065050;28;20444;-67
2022/01/11 10:54:45;;;;;;;;;;;;;;;-144.99;97.38;52625.44;5051278;28;20007;-67
2022/01/11 10:57:19;;;;;;;;;;;;;;;-144.99;91.67;52505.16;5040332;28;19929;-67
2022/01/11 11:00:04;;;;;;;;;;;;;;;-144.99;80.03;52448.09;5045132;28;20336;-68
2022/01/11 11:02:30;;;;;;;;;;;;;;;-144.99;69.29;52448.09;5058739;28;20272;-68
2022/01/11 11:04:58;;;;;;;;;;;;;;;-144.99;64.23;52397.13;5044896;28;19925;-65
2022/01/11 11:07:27;;;;;;;;;;;;;;;-144.99;60.56;52464.41;5045237;28;19932;-66
2022/01/11 11:09:54;;;;;;;;;;;;;;;-144.99;59.44;52439.94;5044510;28;19940;-67
2022/01/11 11:12:21;;;;;;;;;;;;;;;-144.99;59.06;52507.19;5063809;28;20011;-68
2022/01/11 11:14:48;;;;;;;;;;;;;;;-144.99;61.26;52407.31;5040106;28;19935;-67
2022/01/11 11:17:25;;;;;;;;;;;;;;;-144.99;58.34;52468.47;5042461;28;19933;-66
2022/01/11 11:19:55;;;;;;;;;;;;;;;-144.99;58.28;52439.94;5041310;28;19929;-64
2022/01/11 11:22:21;;;;;;;;;;;;;;;-144.99;60.60;52403.25;5043108;28;19936;-64
2022/01/11 11:24:49;;;;;;;;;;;;;;;-144.99;58.90;52423.63;5036655;28;20099;-65
2022/01/11 11:27:16;;;;;;;;;;;;;;;-144.99;57.74;52448.09;5044483;28;19936;-66
2022/01/11 11:29:43;;;;;;;;;;;;;;;-144.99;56.38;52407.31;5044652;28;19932;-66
2022/01/11 11:32:09;;;;;;;;;;;;;;;-144.99;57.05;52401.22;5044520;28;20011;-65
2022/01/11 11:34:36;;;;;;;;;;;;;;;-144.99;56.30;52444.03;5031156;28;19928;-65
2022/01/11 11:37:05;;;;;;;;;;;;;;;-144.99;55.83;52405.28;5044832;28;19925;-68
2022/01/11 11:39:32;;;;;;;;;;;;;;;-144.99;55.06;52448.09;5044649;28;19929;-68
2022/01/11 11:42:01;;;;;;;;;;;;;;;-144.99;57.22;52578.53;5046347;28;19935;-66
2022/01/11 11:44:29;;;;;;;;;;;;;;;-144.99;59.07;52446.06;5045459;28;20117;-65
2022/01/11 11:46:56;;;;;;;;;;;;;;;-144.99;56.71;52537.78;5045313;28;20400;-66
2022/01/11 11:49:37;;;;;;;;;;;;;;;-144.99;58.31;52525.56;5044077;28;19929;-67
2022/01/11 11:52:07;;;;;;;;;;;;;;;-144.99;59.29;52472.56;5046087;28;19925;-66
2022/01/11 11:54:46;;;;;;;;;;;;;;;-144.99;56.92;52446.06;5047220;28;19932;-65
2022/01/11 11:57:15;;;;;;;;;;;;;;;-144.99;53.65;52488.84;5044136;28;20309;-66
2022/01/11 11:59:42;;;;;;;;;;;;;;;-144.99;52.33;52558.16;5047587;28;19936;-65
2022/01/11 12:02:10;;;;;;;;;;;;;;;-144.99;51.81;52545.94;5048129;28;19925;-67
2022/01/11 12:04:53;;;;;;;;;;;;;;;-144.99;53.26;52435.88;5042689;28;20393;-65
2022/01/11 12:07:40;;;;;;;;;;;;;;;-144.99;54.23;52460.31;5047777;28;19956;-66
2022/01/11 12:10:09;;;;;;;;;;;;;;;-144.99;53.92;52550.00;5046923;28;19925;-64
2022/01/11 12:12:50;;;;;;;;;;;;;;;-144.99;56.06;52513.31;5042404;28;20216;-65
2022/01/11 12:15:33;;;;;;;;;;;;;;;-144.99;57.12;52509.25;5045151;28;19974;-65
2022/01/11 12:18:13;;;;;;;;;;;;;;;-144.99;54.70;52513.31;5050752;28;19928;-65
2022/01/11 12:20:43;;;;;;;;;;;;;;;-144.99;53.67;52431.78;5049167;28;19929;-65
2022/01/11 12:23:10;;;;;;;;;;;;;;;-144.99;53.11;52444.03;5046617;28;20203;-65